Time;durP1;ratioP1;P1;durP2;ratioP2;P2;SDS_P1;SDS_P2;PMS_P1;PMS_P2;Temp;Humidity;BMP_temperature;BMP_pressure;BME280_temperature;BME280_humidity;BME280_pressure;Samples;Min_cycle;Max_cycle;Signal;HPM_P1;HPM_P2
2021/05/07 00:12:45;;;;;;;0.55;0.40;;;;;;;17.60;49.43;100899.78;5191850;24;20091;-81
2021/05/07 00:15:14;;;;;;;1.15;0.40;;;;;;;17.57;49.32;100895.47;4773517;30;20077;-80
2021/05/07 00:17:45;;;;;;;0.77;0.50;;;;;;;17.57;49.38;100899.78;4774021;30;20035;-80
2021/05/07 00:20:17;;;;;;;1.23;0.50;;;;;;;17.58;49.49;100901.53;4770977;30;20036;-80
2021/05/07 00:22:42;;;;;;;0.95;0.40;;;;;;;17.56;49.43;100898.94;4770786;30;20027;-80
2021/05/07 00:25:09;;;;;;;0.45;0.40;;;;;;;17.56;49.33;100891.13;4768796;30;20036;-80
2021/05/07 00:27:34;;;;;;;0.52;0.40;;;;;;;17.57;49.40;100898.09;4766977;30;20044;-80
2021/05/07 00:30:00;;;;;;;1.17;0.40;;;;;;;17.56;49.43;100901.53;4768616;30;20036;-80
2021/05/07 00:32:25;;;;;;;0.88;0.40;;;;;;;17.57;49.43;100899.78;4767876;30;20399;-80
2021/05/07 00:34:51;;;;;;;0.75;0.45;;;;;;;17.56;49.29;100900.69;4768609;30;20093;-80
2021/05/07 00:37:19;;;;;;;2.03;0.40;;;;;;;17.57;49.16;100908.50;4767020;30;20063;-80
2021/05/07 00:39:44;;;;;;;0.50;0.40;;;;;;;17.57;49.32;100915.41;4782759;30;20061;-80
2021/05/07 00:48:17;;;;;;;1.05;0.40;;;;;;;17.58;49.20;100917.16;4840991;24;20067;-81
2021/05/07 00:50:47;;;;;;;0.60;0.32;;;;;;;17.57;48.89;100910.19;4773711;30;20107;-80
2021/05/07 00:53:17;;;;;;;0.80;0.50;;;;;;;17.58;49.50;100914.56;4774757;30;20032;-80
2021/05/07 00:55:45;;;;;;;0.38;0.38;;;;;;;17.56;49.43;100916.31;4756456;30;20212;-80
2021/05/07 01:01:39;;;;;;;0.43;0.30;;;;;;;17.56;49.30;100913.69;4757949;30;20083;-80
2021/05/07 01:04:11;;;;;;;1.27;0.40;;;;;;;17.55;49.28;100909.34;4727934;30;20075;-80
2021/05/07 01:06:36;;;;;;;1.05;0.57;;;;;;;17.54;49.25;100912.84;4728092;30;20047;-80
2021/05/07 01:09:12;;;;;;;1.02;0.35;;;;;;;17.53;49.46;100913.69;4742683;30;20037;-80
2021/05/07 01:15:18;;;;;;;2.63;0.40;;;;;;;17.58;49.27;100919.75;4756041;30;20070;-80
2021/05/07 01:17:51;;;;;;;0.38;0.30;;;;;;;17.54;49.39;100920.66;4755128;30;20028;-80
2021/05/07 01:20:19;;;;;;;0.70;0.30;;;;;;;17.53;49.23;100924.13;4752983;30;20028;-80
2021/05/07 01:23:03;;;;;;;0.52;0.47;;;;;;;17.54;49.09;100926.72;4740691;30;20037;-80
2021/05/07 01:27:59;;;;;;;0.52;0.40;;;;;;;17.53;49.23;100930.19;4877088;24;19913;-81
2021/05/07 01:30:50;;;;;;;0.40;0.32;;;;;;;17.55;49.07;100936.25;4808128;30;20378;-80
2021/05/07 01:33:25;;;;;;;0.47;0.30;;;;;;;17.52;49.01;100945.81;4806651;29;20062;-81
2021/05/07 01:36:00;;;;;;;;;;;;;;;17.54;49.15;100937.13;4780812;30;20088;-81
2021/05/07 01:41:49;;;;;;;1.00;0.35;;;;;;;17.50;49.32;100935.41;4811211;30;20042;-80
2021/05/07 01:44:20;;;;;;;0.20;0.20;;;;;;;17.53;49.16;100951.03;4810057;30;20027;-81
2021/05/07 01:49:21;;;;;;;0.38;0.30;;;;;;;17.52;49.07;100922.41;4896412;24;20068;-81
2021/05/07 01:55:42;;;;;;;0.95;0.50;;;;;;;17.51;49.12;100918.06;4850527;24;20096;-80
2021/05/07 02:00:57;;;;;;;0.35;0.30;;;;;;;17.50;49.24;100912.00;4861137;24;20073;-80
2021/05/07 02:03:25;;;;;;;0.28;0.28;;;;;;;17.47;48.83;100899.88;4813104;29;20040;-80
2021/05/07 02:05:59;;;;;;;1.15;0.40;;;;;;;17.49;49.23;100899.88;4891226;24;20496;-80
2021/05/07 02:08:29;;;;;;;;;;;;;;;17.48;49.23;100901.63;4795248;30;20043;-81
2021/05/07 02:18:33;;;;;;;0.68;0.40;;;;;;;17.48;48.97;100931.94;4866075;24;20055;-79
2021/05/07 02:20:58;;;;;;;0.43;0.40;;;;;;;17.46;48.95;100929.38;5073127;24;21139;-80
2021/05/07 02:27:21;;;;;;;;;;;;;;;17.46;49.04;100950.19;4809660;30;20120;-79
2021/05/07 02:30:17;;;;;;;0.55;0.40;;;;;;;17.46;49.18;100951.91;4795191;29;19953;-80
2021/05/07 02:32:45;;;;;;;0.30;0.30;;;;;;;17.45;49.10;100956.25;5154905;24;20054;-80
2021/05/07 02:37:47;;;;;;;0.80;0.35;;;;;;;17.43;49.06;100955.41;5047836;24;20053;-82
2021/05/07 02:40:22;;;;;;;0.32;0.30;;;;;;;17.44;48.93;100962.34;4782270;30;20051;-80
2021/05/07 02:46:10;;;;;;;0.35;0.30;;;;;;;17.41;49.25;100969.31;4903121;24;20049;-80
2021/05/07 02:48:37;;;;;;;0.55;0.30;;;;;;;17.43;49.19;100978.81;4796309;29;20051;-80
2021/05/07 02:54:30;;;;;;;0.35;0.35;;;;;;;17.41;49.07;100980.56;4811336;29;20076;-80
2021/05/07 02:56:57;;;;;;;0.20;0.20;;;;;;;17.39;49.30;100979.72;4778280;30;20031;-80
2021/05/07 02:59:25;;;;;;;0.82;0.40;;;;;;;17.41;49.27;100984.91;4814274;24;20055;-81
2021/05/07 03:05:30;;;;;;;0.30;0.30;;;;;;;17.40;49.17;100997.06;4809336;30;20053;-81
2021/05/07 03:07:58;;;;;;;0.50;0.40;;;;;;;17.38;48.98;100996.22;4811063;29;20034;-80
2021/05/07 03:10:31;;;;;;;0.60;0.40;;;;;;;17.38;49.12;101003.16;4779044;30;20044;-79
2021/05/07 03:13:10;;;;;;;;;;;;;;;17.42;49.15;101016.13;4995173;24;20038;31
2021/05/07 03:15:57;;;;;;;0.40;0.38;;;;;;;17.41;49.16;101022.19;4803187;24;19926;31
2021/05/07 03:18:28;;;;;;;0.50;0.40;;;;;;;17.37;49.21;101023.06;4766931;30;20040;-80
2021/05/07 03:24:17;;;;;;;0.40;0.40;;;;;;;17.37;49.10;101023.06;4912671;24;20051;-80
2021/05/07 03:26:44;;;;;;;1.08;0.30;;;;;;;17.39;48.88;101025.69;4776825;29;20087;-80
2021/05/07 03:29:10;;;;;;;0.80;0.30;;;;;;;17.37;49.00;101024.81;4777061;30;20028;-79
2021/05/07 03:34:59;;;;;;;0.32;0.30;;;;;;;17.35;49.09;101039.56;4792568;29;20099;-79
2021/05/07 03:56:20;;;;;;;0.35;0.32;;;;;;;17.34;49.20;101062.13;5617824;24;20051;-80
2021/05/07 04:05:19;;;;;;;0.38;0.22;;;;;;;17.34;48.90;101069.06;4770177;30;20046;-80
2021/05/07 04:07:47;;;;;;;0.20;0.20;;;;;;;17.33;49.15;101086.41;4756064;30;20017;-79
2021/05/07 04:10:18;;;;;;;0.20;0.20;;;;;;;17.32;49.00;101084.69;4769172;30;20051;-79
2021/05/07 04:15:19;;;;;;;0.45;0.40;;;;;;;17.32;49.07;101089.03;4825800;24;20095;-80
2021/05/07 05:00:55;;;;;;;0.30;0.30;;;;;;;17.45;49.00;101137.53;4814118;29;20058;-80
2021/05/07 05:06:44;;;;;;;1.85;0.45;;;;;;;17.53;48.64;101148.78;4831051;24;20090;-79
2021/05/07 05:09:10;;;;;;;0.40;0.40;;;;;;;17.65;48.22;101142.63;4812168;30;20095;-80
2021/05/07 05:15:17;;;;;;;0.20;0.20;;;;;;;18.26;47.07;101157.91;4812439;30;20040;-83
2021/05/07 05:17:44;;;;;;;0.30;0.30;;;;;;;18.26;47.18;101159.66;4811392;30;20015;-82
2021/05/07 05:20:10;;;;;;;2.70;0.75;;;;;;;18.41;46.62;101164.75;4793411;30;20043;-86
2021/05/07 05:22:37;;;;;;;1.05;0.30;;;;;;;18.32;47.02;101163.97;4793767;30;20027;-81
2021/05/07 05:25:04;;;;;;;1.27;0.30;;;;;;;18.34;47.02;101170.03;4803950;30;20130;-84
2021/05/07 05:27:39;;;;;;;0.20;0.20;;;;;;;18.18;47.49;101170.16;4792265;30;20065;-85
2021/05/07 05:30:06;;;;;;;1.27;0.30;;;;;;;18.07;47.77;101177.13;4793601;30;20077;-82
2021/05/07 05:32:32;;;;;;;0.20;0.20;;;;;;;18.10;47.56;101184.94;4786575;30;20043;-85
2021/05/07 05:34:57;;;;;;;0.30;0.30;;;;;;;18.16;47.50;101182.31;4808168;30;20027;-87
2021/05/07 05:37:24;;;;;;;0.57;0.20;;;;;;;18.73;46.19;101184.47;4792976;30;20031;-89
2021/05/07 05:39:49;;;;;;;1.20;0.30;;;;;;;18.85;45.71;101181.78;4759501;30;20453;-87
2021/05/07 05:42:15;;;;;;;0.35;0.30;;;;;;;18.88;45.98;101186.13;4775365;30;20096;-88
2021/05/07 05:44:40;;;;;;;0.20;0.20;;;;;;;19.23;45.03;101188.38;4760492;30;20039;-87
2021/05/07 05:47:05;;;;;;;0.30;0.20;;;;;;;19.31;45.13;101193.50;4775680;30;20063;-86
2021/05/07 05:49:31;;;;;;;0.77;0.30;;;;;;;19.57;44.50;101197.56;4762484;30;20088;-86
2021/05/07 05:51:56;;;;;;;6.53;0.40;;;;;;;19.71;44.35;101193.06;4790796;30;20058;-85
2021/05/07 05:54:22;;;;;;;0.50;0.40;;;;;;;19.84;44.18;101202.47;4774917;30;20035;-83
2021/05/07 05:56:47;;;;;;;1.25;0.30;;;;;;;20.01;44.02;101207.47;4774830;30;20035;-84
2021/05/07 05:59:13;;;;;;;0.45;0.30;;;;;;;20.03;44.00;101207.44;4774705;30;20047;-83
2021/05/07 06:01:38;;;;;;;1.05;0.30;;;;;;;20.09;44.01;101209.97;4774465;30;20054;-83
2021/05/07 06:04:06;;;;;;;0.20;0.20;;;;;;;20.18;43.61;101214.19;4745536;30;20035;-82
2021/05/07 06:06:32;;;;;;;2.55;0.40;;;;;;;20.29;43.59;101213.13;4777812;30;20491;-84
2021/05/07 06:08:57;;;;;;;0.68;0.30;;;;;;;20.37;43.51;101222.63;4789250;30;20046;-79
2021/05/07 06:11:23;;;;;;;1.10;0.30;;;;;;;20.43;43.23;101228.63;4793730;30;20039;-84
2021/05/07 06:13:48;;;;;;;0.75;0.40;;;;;;;20.37;43.55;101227.84;4780325;30;20099;-84
2021/05/07 06:16:15;;;;;;;1.27;0.47;;;;;;;20.38;43.63;101234.81;4777879;30;20043;-82
2021/05/07 06:19:10;;;;;;;2.38;0.50;;;;;;;20.34;43.83;101244.47;4795399;30;20167;-87
2021/05/07 06:25:17;;;;;;;2.33;0.50;;;;;;;20.79;42.74;101243.78;4790727;30;19951;-79
2021/05/07 06:27:43;;;;;;;2.47;0.55;;;;;;;21.01;42.05;101250.38;4790227;29;20031;-80
2021/05/07 06:30:11;;;;;;;0.90;0.40;;;;;;;21.15;41.86;101245.75;4773893;30;20031;-80
2021/05/07 06:32:37;;;;;;;2.97;0.50;;;;;;;21.32;41.37;101255.94;4774318;30;20032;-81
2021/05/07 06:35:04;;;;;;;0.65;0.50;;;;;;;21.47;41.09;101249.59;4773731;30;20031;-80
2021/05/07 06:37:30;;;;;;;0.73;0.50;;;;;;;21.55;41.13;101252.91;4774110;30;20121;-80
2021/05/07 06:39:55;;;;;;;0.65;0.43;;;;;;;21.62;40.93;101258.88;4789985;30;20113;-81
2021/05/07 06:42:20;;;;;;;0.80;0.50;;;;;;;21.75;40.57;101259.50;4759201;30;20035;-80
2021/05/07 06:44:46;;;;;;;0.45;0.40;;;;;;;21.15;41.85;101263.22;4774735;30;20070;-80
2021/05/07 06:47:11;;;;;;;0.70;0.40;;;;;;;21.53;41.00;101270.38;4780831;30;20100;-80
2021/05/07 06:49:37;;;;;;;0.68;0.47;;;;;;;21.64;40.62;101271.94;4792761;30;20507;-80
2021/05/07 06:52:03;;;;;;;0.98;0.55;;;;;;;21.88;40.20;101281.94;4791916;29;20122;-79
2021/05/07 06:54:29;;;;;;;0.55;0.40;;;;;;;22.06;39.99;101272.84;4790892;30;20031;-79
2021/05/07 06:56:56;;;;;;;1.05;0.40;;;;;;;22.06;39.69;101275.47;4774069;30;20460;-82
2021/05/07 06:59:24;;;;;;;4.50;0.63;;;;;;;22.08;39.79;101278.03;4759103;30;20506;-81
2021/05/07 07:01:50;;;;;;;0.45;0.40;;;;;;;22.07;39.65;101281.56;4759481;30;20039;-84
2021/05/07 07:04:15;;;;;;;0.40;0.40;;;;;;;21.29;41.03;101299.63;4759873;30;20028;-84
2021/05/07 07:06:41;;;;;;;0.88;0.50;;;;;;;21.09;42.08;101303.44;4763938;30;20052;-86
2021/05/07 07:09:06;;;;;;;0.55;0.40;;;;;;;20.74;42.33;101304.88;4741159;30;20063;-84
2021/05/07 07:11:31;;;;;;;0.82;0.30;;;;;;;20.89;42.01;101303.78;4742840;30;20568;-82
2021/05/07 07:13:57;;;;;;;0.77;0.35;;;;;;;20.12;44.06;101314.41;4759721;30;20040;-87
2021/05/07 07:16:22;;;;;;;0.80;0.40;;;;;;;19.67;44.98;101317.53;4741917;30;20036;-87
2021/05/07 07:18:50;;;;;;;2.00;0.40;;;;;;;19.71;44.90;101326.22;4754737;30;20097;-86
2021/05/07 07:21:16;;;;;;;0.60;0.40;;;;;;;20.97;41.73;101324.59;4724593;30;20044;-86
2021/05/07 07:23:41;;;;;;;0.80;0.50;;;;;;;20.90;42.00;101322.94;4740472;30;20153;-90
2021/05/07 07:26:07;;;;;;;0.95;0.30;;;;;;;21.04;41.60;101336.69;4755185;30;20102;-87
2021/05/07 07:28:33;;;;;;;1.30;0.50;;;;;;;21.06;41.71;101324.44;4755608;30;20035;-90
2021/05/07 07:30:59;;;;;;;0.40;0.40;;;;;;;21.22;41.56;101329.41;4753632;30;20070;-93
2021/05/07 07:33:24;;;;;;;1.08;0.65;;;;;;;20.74;42.55;101346.72;4753463;30;20133;-90
2021/05/07 07:35:50;;;;;;;0.60;0.45;;;;;;;20.08;44.10;101349.31;4753200;30;20484;-90
2021/05/07 07:38:15;;;;;;;2.42;0.43;;;;;;;19.90;44.62;101359.09;4738505;30;20496;-87
2021/05/07 07:40:40;;;;;;;1.08;0.38;;;;;;;20.59;42.69;101354.78;4737930;30;20076;-87
2021/05/07 07:43:06;;;;;;;2.28;0.50;;;;;;;20.58;42.96;101368.75;4723299;30;20135;-86
2021/05/07 07:45:32;;;;;;;1.23;0.40;;;;;;;19.83;44.69;101374.84;4754103;30;20484;-89
2021/05/07 07:47:57;;;;;;;0.75;0.40;;;;;;;19.55;45.37;101375.06;4752811;30;20056;-88
2021/05/07 07:50:22;;;;;;;0.40;0.40;;;;;;;19.97;44.09;101372.06;4737781;30;20040;-87
2021/05/07 07:52:48;;;;;;;7.63;0.50;;;;;;;20.12;44.00;101391.06;4723112;30;20488;-86
2021/05/07 07:55:13;;;;;;;3.05;0.40;;;;;;;19.67;45.05;101388.03;4737715;30;20408;-88
2021/05/07 07:57:39;;;;;;;3.33;0.60;;;;;;;19.23;46.57;101388.41;4752199;30;20059;-85
2021/05/07 08:00:08;;;;;;;14.05;0.60;;;;;;;19.71;45.29;101389.75;4752976;30;20101;-85
2021/05/07 08:02:34;;;;;;;4.88;0.63;;;;;;;19.60;45.39;101399.41;4752880;30;20044;-85
2021/05/07 08:05:02;;;;;;;6.38;1.02;;;;;;;19.33;46.19;101401.34;4762604;24;20040;-85
2021/05/07 08:07:30;;;;;;;9.80;1.60;;;;;;;19.53;45.67;101406.44;4789871;30;20491;-86
2021/05/07 08:10:14;;;;;;;6.13;1.58;;;;;;;19.07;46.78;101411.97;4788425;30;20035;-88
2021/05/07 08:12:39;;;;;;;8.07;1.90;;;;;;;19.69;45.19;101415.03;4787349;30;20031;-85
2021/05/07 08:15:06;;;;;;;4.35;1.20;;;;;;;19.52;45.43;101417.72;4788848;30;20478;-89
2021/05/07 08:17:32;;;;;;;5.95;2.00;;;;;;;19.22;46.13;101428.41;4772661;30;20031;-89
2021/05/07 08:20:02;;;;;;;11.05;1.95;;;;;;;19.20;46.43;101431.03;4788007;30;20024;-88
2021/05/07 08:22:27;;;;;;;8.18;1.98;;;;;;;19.47;45.49;101431.72;4789203;30;20043;-88
2021/05/07 08:24:55;;;;;;;7.55;1.73;;;;;;;19.38;45.75;101437.00;4773545;30;20502;-89
2021/05/07 08:27:20;;;;;;;7.28;2.05;;;;;;;19.45;45.72;101436.09;4793744;29;20043;-88
2021/05/07 08:29:46;;;;;;;5.65;2.13;;;;;;;19.18;46.07;101431.91;4801128;30;20028;-89
2021/05/07 08:32:12;;;;;;;4.38;1.83;;;;;;;19.16;46.16;101439.75;4806540;30;20030;-89
2021/05/07 08:34:41;;;;;;;5.97;1.48;;;;;;;19.27;46.19;101444.91;4791904;30;20036;-88
2021/05/07 08:37:13;;;;;;;3.80;1.55;;;;;;;19.32;45.86;101450.97;4774393;30;20072;-88
2021/05/07 08:39:39;;;;;;;4.05;1.50;;;;;;;19.03;46.32;101453.75;4773189;30;20079;-90
2021/05/07 08:42:06;;;;;;;5.00;1.67;;;;;;;18.91;46.80;101458.16;4788230;30;20031;-88
2021/05/07 08:44:31;;;;;;;4.95;1.25;;;;;;;18.90;46.83;101463.38;4774448;30;20189;-89
2021/05/07 08:46:58;;;;;;;4.18;1.10;;;;;;;18.95;46.50;101472.06;4793593;30;20051;-88
2021/05/07 08:49:24;;;;;;;5.22;1.40;;;;;;;19.03;46.30;101472.91;4779103;30;20027;-90
2021/05/07 08:51:50;;;;;;;5.68;1.40;;;;;;;18.99;46.34;101467.69;4793386;30;20088;-90
2021/05/07 08:54:18;;;;;;;4.35;1.10;;;;;;;18.94;46.63;101472.06;4791015;30;20035;-87
2021/05/07 08:56:44;;;;;;;4.60;1.02;;;;;;;18.88;46.49;101475.59;4788955;30;20398;-88
2021/05/07 08:59:10;;;;;;;1.35;0.82;;;;;;;18.78;46.94;101487.78;4789634;30;20043;-87
2021/05/07 09:01:47;;;;;;;2.53;1.17;;;;;;;19.06;46.08;101491.13;4790098;30;20372;-88
2021/05/07 09:04:18;;;;;;;3.30;1.02;;;;;;;18.99;46.06;101488.53;4788146;30;20079;-88
2021/05/07 09:06:55;;;;;;;3.55;1.30;;;;;;;18.95;46.43;101495.53;4788211;30;20414;-87
2021/05/07 09:09:26;;;;;;;4.65;0.93;;;;;;;19.06;45.99;101500.69;4789003;30;20027;-85
2021/05/07 09:22:22;;;;;;;2.35;0.82;;;;;;;18.89;46.50;101522.50;4754116;30;20507;-86
2021/05/07 09:24:47;;;;;;;2.25;0.80;;;;;;;18.94;46.63;101521.63;4754445;30;20044;-87
2021/05/07 09:27:21;;;;;;;5.95;1.00;;;;;;;18.95;46.37;101534.66;4741189;29;20040;-86
2021/05/07 09:29:47;;;;;;;1.40;0.85;;;;;;;18.92;46.53;101534.66;4791753;30;20445;-83
2021/05/07 09:32:12;;;;;;;1.67;0.70;;;;;;;18.99;46.73;101538.09;4790424;30;20046;-85
2021/05/07 09:34:38;;;;;;;2.22;0.88;;;;;;;18.97;46.30;101542.50;4775501;30;20035;-84
2021/05/07 09:37:17;;;;;;;2.22;0.75;;;;;;;19.03;46.39;101543.31;4791694;30;20473;-83
2021/05/07 09:39:42;;;;;;;1.38;0.80;;;;;;;19.03;46.69;101553.75;4789782;30;20093;-85
2021/05/07 09:42:08;;;;;;;4.45;1.00;;;;;;;19.01;46.51;101555.50;4791057;30;20407;-85
2021/05/07 09:44:35;;;;;;;4.63;0.80;;;;;;;18.92;46.40;101552.91;4789509;30;20035;-84
2021/05/07 09:47:12;;;;;;;8.50;0.88;;;;;;;18.94;46.54;101560.75;4791098;30;20088;-87
2021/05/07 09:49:38;;;;;;;5.72;1.15;;;;;;;19.03;46.31;101569.41;4790164;30;20036;-87
2021/05/07 09:52:03;;;;;;;1.83;0.85;;;;;;;19.10;46.11;101572.84;4790813;30;20455;-89
2021/05/07 09:54:29;;;;;;;3.75;0.90;;;;;;;19.09;46.11;101571.97;4791160;30;20478;-88
2021/05/07 09:56:55;;;;;;;2.83;0.70;;;;;;;19.09;46.26;101576.31;4789812;30;20063;-87
2021/05/07 09:59:22;;;;;;;2.97;0.95;;;;;;;19.04;46.36;101578.09;4790101;30;20058;-88
2021/05/07 10:01:48;;;;;;;1.60;0.88;;;;;;;19.06;46.16;101590.25;4792154;30;20061;-87
2021/05/07 10:04:15;;;;;;;2.70;1.00;;;;;;;19.05;46.59;101592.84;4760666;30;20031;-86
2021/05/07 10:06:41;;;;;;;4.35;0.82;;;;;;;19.09;46.30;101589.38;4791862;30;20075;-88
2021/05/07 10:09:08;;;;;;;1.08;0.68;;;;;;;19.06;46.26;101587.66;4791706;30;20466;-90
2021/05/07 10:11:42;;;;;;;2.88;1.00;;;;;;;19.06;46.27;101592.00;4790826;30;20039;-88
2021/05/07 10:14:10;;;;;;;1.50;0.80;;;;;;;19.08;46.41;101593.72;4790120;30;20027;-87
2021/05/07 10:16:36;;;;;;;4.00;0.70;;;;;;;19.06;46.22;101603.28;4792088;30;20383;-90
2021/05/07 10:19:06;;;;;;;3.50;0.90;;;;;;;19.09;46.24;101599.81;4791607;30;20052;-87
2021/05/07 10:21:38;;;;;;;2.22;0.70;;;;;;;19.09;46.29;101605.88;4791000;30;20036;-86
2021/05/07 10:24:05;;;;;;;1.90;0.70;;;;;;;19.11;46.18;101603.28;4791061;30;20035;-87
2021/05/07 10:26:52;;;;;;;3.00;0.60;;;;;;;19.11;46.27;101608.50;4789906;29;20035;-88
2021/05/07 10:29:36;;;;;;;2.83;0.90;;;;;;;19.16;46.16;101608.47;4789261;30;20034;-88
2021/05/07 10:32:02;;;;;;;3.05;0.70;;;;;;;19.16;46.17;101614.56;4790851;30;20084;-87
2021/05/07 10:34:28;;;;;;;1.30;0.60;;;;;;;19.13;46.51;101626.75;4791969;30;20112;-85
2021/05/07 10:36:56;;;;;;;1.52;0.73;;;;;;;19.17;46.29;101631.97;4790749;30;20484;-85
2021/05/07 10:39:24;;;;;;;1.95;0.80;;;;;;;19.21;46.12;101625.84;4789403;30;20151;-87
2021/05/07 10:41:54;;;;;;;1.25;0.60;;;;;;;19.18;46.24;101627.59;4789187;30;20038;-87
2021/05/07 10:44:21;;;;;;;0.90;0.50;;;;;;;19.18;46.15;101625.84;4791765;30;20110;-87
2021/05/07 10:46:58;;;;;;;0.98;0.60;;;;;;;19.17;46.03;101631.97;4791880;30;20030;-87
2021/05/07 10:49:35;;;;;;;1.67;0.60;;;;;;;19.12;46.31;101641.56;4799403;30;20031;-87
2021/05/07 10:52:08;;;;;;;1.38;0.65;;;;;;;19.07;46.82;101640.69;4808590;30;20175;-87
2021/05/07 10:54:44;;;;;;;1.00;0.60;;;;;;;18.99;46.78;101638.09;4797393;30;20059;-86
2021/05/07 10:57:31;;;;;;;2.55;0.70;;;;;;;19.00;46.96;101644.19;4791680;30;20579;-85
2021/05/07 11:00:01;;;;;;;3.47;0.68;;;;;;;19.02;46.85;101650.28;4789639;30;20043;-86
2021/05/07 11:02:27;;;;;;;1.45;0.65;;;;;;;19.00;46.71;101645.03;4790284;30;20376;-86
2021/05/07 11:04:53;;;;;;;4.32;0.68;;;;;;;18.97;46.84;101652.03;4788736;30;20030;-86
2021/05/07 11:07:29;;;;;;;1.33;0.60;;;;;;;19.02;46.73;101652.88;4788611;30;20096;-86
2021/05/07 11:10:06;;;;;;;1.42;0.60;;;;;;;18.99;47.04;101658.97;4785796;30;20067;-86
2021/05/07 11:12:33;;;;;;;1.80;0.77;;;;;;;18.95;46.91;101657.25;4788899;30;20456;-86
2021/05/07 11:14:59;;;;;;;4.88;0.75;;;;;;;18.94;47.15;101663.31;4788348;30;20488;-85
2021/05/07 11:17:24;;;;;;;1.75;0.70;;;;;;;18.94;47.35;101665.91;4789208;30;20066;-86
2021/05/07 11:19:52;;;;;;;1.67;0.80;;;;;;;18.96;46.94;101671.16;4788124;30;20475;-87
2021/05/07 11:22:35;;;;;;;3.33;0.65;;;;;;;18.96;47.25;101665.94;4773452;30;20032;-87
2021/05/07 11:25:00;;;;;;;1.02;0.80;;;;;;;19.02;47.05;101663.31;4788262;30;20051;-88
2021/05/07 11:27:27;;;;;;;7.18;4.40;;;;;;;19.00;46.85;101647.66;4788433;29;20066;-86
2021/05/07 11:29:58;;;;;;;10.32;7.13;;;;;;;19.00;47.05;101659.84;4788339;30;20402;-86
2021/05/07 11:32:25;;;;;;;20.58;12.40;;;;;;;18.95;47.48;101665.06;4789405;30;20506;-85
2021/05/07 11:34:58;;;;;;;22.80;15.48;;;;;;;18.95;47.17;101674.63;4788009;30;20112;-85
2021/05/07 11:37:27;;;;;;;29.42;18.90;;;;;;;18.91;47.43;101674.63;4788615;29;20032;-84
2021/05/07 11:40:14;;;;;;;29.58;19.92;;;;;;;18.98;47.27;101680.69;4788399;30;20031;-84
2021/05/07 11:42:40;;;;;;;30.90;21.42;;;;;;;18.96;47.35;101685.03;4790624;30;20115;-85
2021/05/07 11:45:09;;;;;;;32.55;21.85;;;;;;;18.95;46.89;101675.50;4790755;30;20031;-84
2021/05/07 11:47:38;;;;;;;32.70;21.60;;;;;;;18.98;47.05;101685.91;4789451;30;20046;-86
2021/05/07 11:50:08;;;;;;;34.78;24.08;;;;;;;18.93;47.01;101685.06;4790627;30;20043;-85
2021/05/07 11:52:47;;;;;;;37.97;25.00;;;;;;;18.95;47.23;101685.94;4788925;30;20167;-87
2021/05/07 11:55:32;;;;;;;36.58;24.45;;;;;;;18.96;46.98;101685.03;4789096;30;20401;-85
2021/05/07 11:58:08;;;;;;;40.20;27.05;;;;;;;18.95;47.03;101696.38;4788955;30;20050;-85
2021/05/07 12:00:35;;;;;;;41.33;26.67;;;;;;;18.92;47.24;101685.91;4774348;30;20039;-87
2021/05/07 12:03:03;;;;;;;36.70;25.45;;;;;;;18.93;46.98;101692.88;4789098;30;20049;-85
2021/05/07 12:05:37;;;;;;;38.00;25.58;;;;;;;18.94;47.16;101692.00;4788549;30;20083;-86
2021/05/07 12:08:03;;;;;;;38.70;26.05;;;;;;;18.99;46.79;101702.44;4788799;30;20042;-85
2021/05/07 12:10:30;;;;;;;37.53;24.75;;;;;;;18.94;47.01;101709.41;4788833;30;20027;-87
2021/05/07 12:13:02;;;;;;;37.65;25.60;;;;;;;18.95;46.77;101719.84;4790821;30;20213;-87
2021/05/07 12:15:40;;;;;;;38.88;24.30;;;;;;;18.99;46.99;101713.75;4789969;30;20035;-86
2021/05/07 12:18:21;;;;;;;35.85;24.77;;;;;;;19.03;46.92;101712.00;4789491;30;20046;-87
2021/05/07 12:20:59;;;;;;;34.20;24.00;;;;;;;19.05;46.77;101725.91;4788619;30;20055;-89
2021/05/07 12:23:38;;;;;;;33.80;23.40;;;;;;;19.06;46.74;101725.03;4788457;30;20040;-88
2021/05/07 12:26:03;;;;;;;36.28;24.63;;;;;;;19.04;46.63;101726.78;4788156;29;20035;-88
2021/05/07 12:28:29;;;;;;;32.75;22.70;;;;;;;19.04;46.62;101732.88;4787859;30;20036;-87
2021/05/07 12:30:57;;;;;;;32.47;22.90;;;;;;;19.01;46.91;101729.38;4788242;30;20031;-89
2021/05/07 12:33:25;;;;;;;31.45;22.17;;;;;;;19.00;46.90;101730.25;4775659;30;20047;-82
2021/05/07 12:36:38;;;;;;;32.90;21.80;;;;;;;18.97;46.76;101735.50;4794770;30;20034;-85
2021/05/07 12:39:14;;;;;;;32.05;21.88;;;;;;;18.94;46.89;101745.91;4821974;24;20150;-88
2021/05/07 12:45:20;;;;;;;29.10;20.65;;;;;;;18.95;46.79;101737.25;4793375;30;20043;-89
2021/05/07 12:47:47;;;;;;;27.17;18.55;;;;;;;18.99;46.47;101747.66;4776320;30;20043;-87
2021/05/07 12:50:34;;;;;;;;;;;;;;;;;;;;;
2021/05/07 12:53:00;;;;;;;28.15;19.95;;;;;;;18.97;46.64;101740.72;4795737;30;20118;-85
2021/05/07 12:55:25;;;;;;;26.52;18.98;;;;;;;18.98;46.55;101758.94;4780388;30;20028;-87
2021/05/07 12:57:51;;;;;;;30.08;19.13;;;;;;;19.02;46.38;101757.22;4780658;30;20422;-84
2021/05/07 13:00:17;;;;;;;27.08;18.50;;;;;;;19.03;46.55;101758.94;4786615;30;20035;-84
2021/05/07 13:02:45;;;;;;;25.33;18.45;;;;;;;19.03;46.57;101761.56;4767588;30;20057;-86
2021/05/07 13:05:11;;;;;;;25.02;17.95;;;;;;;18.98;46.52;101761.56;4767816;30;20035;-86
2021/05/07 13:07:37;;;;;;;26.30;17.80;;;;;;;18.99;46.71;101767.63;4765147;30;20490;-88
2021/05/07 13:10:02;;;;;;;27.52;18.25;;;;;;;18.96;46.92;101771.13;4779694;30;20035;-89
2021/05/07 13:12:28;;;;;;;25.58;17.67;;;;;;;19.04;46.75;101766.78;4763714;30;20024;-84
2021/05/07 13:14:56;;;;;;;23.85;15.98;;;;;;;19.08;46.55;101768.50;4778501;30;20042;-88
2021/05/07 13:17:21;;;;;;;21.92;15.65;;;;;;;19.14;46.67;101777.19;4763060;30;20062;-88
2021/05/07 13:19:47;;;;;;;21.05;16.27;;;;;;;19.15;46.53;101776.34;4778415;30;20051;-85
2021/05/07 13:22:22;;;;;;;;;;;;;;;;;;;;;
2021/05/07 13:24:48;;;;;;;19.98;15.48;;;;;;;19.18;46.46;101787.63;4796937;30;20122;-88
2021/05/07 13:27:13;;;;;;;22.73;15.20;;;;;;;19.19;46.53;101780.69;4779750;30;20077;-87
2021/05/07 13:29:39;;;;;;;21.10;15.15;;;;;;;19.25;46.82;101788.47;4780130;30;20569;-86
2021/05/07 13:32:05;;;;;;;20.02;13.90;;;;;;;19.25;46.67;101788.47;4800921;30;20476;-87
2021/05/07 13:34:31;;;;;;;17.25;13.45;;;;;;;19.24;46.63;101791.97;4785862;30;20062;-87
2021/05/07 13:36:57;;;;;;;19.90;13.35;;;;;;;19.22;46.75;101799.81;4780721;30;20471;-90
2021/05/07 13:39:22;;;;;;;16.92;12.95;;;;;;;19.28;46.84;101798.94;4782465;30;20091;-89
2021/05/07 13:41:48;;;;;;;19.42;13.25;;;;;;;19.27;46.67;101794.56;4779191;30;20479;-88
2021/05/07 13:44:13;;;;;;;19.23;12.73;;;;;;;19.28;46.76;101801.53;4763522;30;20453;-87
2021/05/07 13:46:38;;;;;;;17.70;12.13;;;;;;;19.22;46.93;101801.56;4799712;30;20039;-89
2021/05/07 13:49:04;;;;;;;16.08;11.65;;;;;;;19.26;46.91;101808.50;4780597;30;20122;-85
2021/05/07 13:51:29;;;;;;;16.58;11.63;;;;;;;19.32;46.50;101806.75;4780597;30;20541;-91
2021/05/07 13:53:57;;;;;;;19.05;11.82;;;;;;;19.31;46.92;101812.88;4780110;30;20027;-87
2021/05/07 13:56:23;;;;;;;16.90;11.68;;;;;;;19.30;46.78;101808.50;4780537;30;20479;-88
2021/05/07 13:58:48;;;;;;;15.45;11.18;;;;;;;19.26;46.93;101811.97;4763689;30;20050;-87
2021/05/07 14:01:13;;;;;;;15.50;10.98;;;;;;;19.29;47.02;101811.09;4792418;29;20027;-86
2021/05/07 14:03:39;;;;;;;14.27;10.93;;;;;;;19.25;46.72;101820.69;4762502;30;20031;-89
2021/05/07 14:06:06;;;;;;;13.23;10.35;;;;;;;19.26;46.66;101825.03;4762241;30;20177;-88
2021/05/07 14:08:32;;;;;;;14.55;10.35;;;;;;;19.24;46.78;101824.16;4776712;30;20407;-86
2021/05/07 14:10:57;;;;;;;14.23;10.20;;;;;;;19.23;47.21;101819.81;4792453;30;20035;-87
2021/05/07 14:13:23;;;;;;;13.23;9.50;;;;;;;19.25;46.97;101827.63;4775947;30;20028;-88
2021/05/07 14:15:48;;;;;;;15.60;10.38;;;;;;;19.28;46.84;101831.13;4792484;30;20092;-88
2021/05/07 14:18:13;;;;;;;13.05;9.77;;;;;;;19.27;46.62;101818.94;4775968;30;20110;-87